URWWOAKB

Guest
Details From URWW - Gumrak
To OAKB - Kabul Intl
Flight Number -
Tags Generated
Created
Modified
Stats Distance 1,393 nm / 2,580 km
Max Altitude 0 ft / 0 m
Waypoints 3
Social Downloads 0
Likes 0
Share VATSIM

Download

Looking for another format? Having issues loading an existing format? Contact us
Advertisement - Login to hide

Notes

Generated

Route

URWW BGM18 OAKB

ID Type Via Altitude Latitude Longitude Leg Dist Tot Dist Heading (true) Name
O URWW APT - 0 ft / 0 m 48.78224˚ 44.35218˚ - 0 nm - GUMRAK
BGM18 FIX - 0 ft / 0 m 34.70168˚ 69.04396˚ 1382 nm 1382 nm 119° / 135° -
O OAKB APT - 0 ft / 0 m 34.57052˚ 69.19431˚ 10 nm 1392 nm 137° / 137° -

Altitude Profile

Advertisement - Login to hide

Weather


0- 5 10 15 20 25 30 35+ Temperature / ° C

Clouds and Precipitation
Forecast for 2017-12-18 18:00 UTC. Updated an hour ago

Ground ~20,000 ft ~40,000 ft Winds

URWW

Details ICAO URWW (VOG)
Name GUMRAK
Region Russia
Timezone Europe/Volgograd (UTC+3.0)
Stats Elevation 482 ft / 147 m (AMSL)
Location 48.780630° 44.352696°
Runways 3
Magnetic Variation 9.178° E

METAR

URWW 181630Z 13009MPS 9999 BKN013 01/M04 Q1023 R06/320150 NOSIG

Decode

TAF

Not found

Departure Runways

ID Width Length Bearing (true) Bearing (mag) Surface Threshold Offset Overrun Length
08 350 ft / 107 m 1,563 ft / 476 m 84.16° 74.98° Grass 0 ft / 0 m 0 ft / 0 m
11 161 ft / 49 m 8,180 ft / 2,493 m 120.19° 111.01° Asphalt 0 ft / 0 m 150 ft / 46 m
11R 330 ft / 101 m 5,508 ft / 1,679 m 120.08° 110.90° Grass 0 ft / 0 m 0 ft / 0 m
26 350 ft / 107 m 1,563 ft / 476 m 264.16° 254.98° Grass 0 ft / 0 m 0 ft / 0 m
29 161 ft / 49 m 8,180 ft / 2,493 m 300.22° 291.04° Asphalt 0 ft / 0 m 130 ft / 40 m
29L 330 ft / 101 m 5,508 ft / 1,679 m 300.09° 290.91° Grass 0 ft / 0 m 0 ft / 0 m

OAKB

Details ICAO OAKB (KBL)
Name Kabul Intl
Region Afghanistan
Timezone Asia/Kabul (UTC+4.5)
Stats Elevation 5,877 ft / 1,791 m (AMSL)
Location 34.565875° 69.212289°
Runways 1
Magnetic Variation 3.165° E

METAR

OAKB 181550Z 32004KT 1400 FU NSC 02/M04 Q1030 NOSIG RMK A3044 AMB AMB

Decode

TAF

TAF OAKB 181105Z 1812/1912 VRB02KT 3500 HZ SCT110 BECMG 1812/1814 2000 FU TEMPO 1816/1820 0800 BECMG 1901/11902 6000 NSW BECMG 1904/1905 3000 HZ

Decode

Destination Runways

ID Width Length Bearing (true) Bearing (mag) Surface Threshold Offset Overrun Length
11 164 ft / 50 m 11,483 ft / 3,500 m 107.39° 104.23° Asphalt 0 ft / 0 m 144 ft / 44 m
29 164 ft / 50 m 11,483 ft / 3,500 m 287.41° 284.25° Asphalt 0 ft / 0 m 190 ft / 58 m

Approach Navaids

Runway Type Ident Frequency Range Bearing (true) Bearing (mag) Slope Elevation
29 Localiser OAKB 110.50 MHz 18 nm / 33 km 287.33° 284.16° - 5,962 ft / 1,817 m (AMSL)
29 Glidescope OAKB 110.50 MHz 10 nm / 19 km 287.40° 284.24° 3.85° 5,943 ft / 1,811 m (AMSL)